createdAt,value
2019-05-10T00:00:28.231Z,0.17
2019-05-10T00:03:14.732Z,0.20
2019-05-10T00:06:00.796Z,0.15
2019-05-10T00:08:47.259Z,0.20
2019-05-10T00:11:35.266Z,0.20
2019-05-10T00:14:23.227Z,0.10
2019-05-10T00:16:53.081Z,0.20
2019-05-10T00:19:21.488Z,0.30
2019-05-10T00:21:49.905Z,0.20
2019-05-10T00:24:18.313Z,0.20
2019-05-10T00:26:46.717Z,0.55
2019-05-10T00:29:14.803Z,0.30
2019-05-10T00:31:43.201Z,0.20
2019-05-10T00:34:11.612Z,0.20
2019-05-10T00:36:40.009Z,0.10
2019-05-10T00:39:08.096Z,0.20
2019-05-10T00:41:36.497Z,0.13
2019-05-10T00:44:05.181Z,0.20
2019-05-10T00:46:33.581Z,0.30
2019-05-10T00:49:02.260Z,0.10
2019-05-10T00:51:30.665Z,0.20
2019-05-10T00:53:59.086Z,0.10
2019-05-10T00:56:27.483Z,0.10
2019-05-10T00:58:55.904Z,0.20
2019-05-10T01:01:24.301Z,0.20
2019-05-10T01:03:52.742Z,0.17
2019-05-10T01:06:21.151Z,0.20
2019-05-10T01:08:49.560Z,0.03
2019-05-10T01:11:17.648Z,0.20
2019-05-10T01:13:46.047Z,0.20
2019-05-10T01:16:14.475Z,0.20
2019-05-10T01:18:42.880Z,0.10
2019-05-10T01:21:11.293Z,0.20
2019-05-10T01:23:39.711Z,0.30
2019-05-10T01:26:08.168Z,0.20
2019-05-10T01:28:36.592Z,0.30
2019-05-10T01:31:05.004Z,0.25
2019-05-10T01:33:33.416Z,0.30
2019-05-10T01:36:01.824Z,0.20
2019-05-10T01:38:29.892Z,0.20
2019-05-10T01:40:58.303Z,0.10
2019-05-10T01:43:26.813Z,0.20
2019-05-10T01:45:55.220Z,0.30
2019-05-10T01:48:23.620Z,0.30
2019-05-10T01:50:52.038Z,0.25
2019-05-10T01:53:20.116Z,0.20
2019-05-10T01:56:07.874Z,0.20
2019-05-10T01:58:36.268Z,0.45
2019-05-10T02:01:04.686Z,0.10
2019-05-10T02:03:33.084Z,0.13
2019-05-10T02:06:01.196Z,0.13
2019-05-10T02:08:29.591Z,0.10
2019-05-10T02:10:58.005Z,0.30
2019-05-10T02:13:26.079Z,0.23
2019-05-10T02:15:54.491Z,0.20
2019-05-10T02:18:22.909Z,0.30
2019-05-10T02:20:51.317Z,0.20
2019-05-10T02:23:19.729Z,0.20
2019-05-10T02:25:48.140Z,0.20
2019-05-10T02:28:16.728Z,0.10
2019-05-10T02:30:45.141Z,0.17
2019-05-10T02:33:13.574Z,0.23
2019-05-10T02:35:41.982Z,0.20
2019-05-10T02:38:10.382Z,0.10
2019-05-10T02:40:38.793Z,0.20
2019-05-10T02:43:07.224Z,0.20
2019-05-10T02:45:35.624Z,0.20
2019-05-10T02:48:03.786Z,0.40
2019-05-10T02:50:32.185Z,0.10
2019-05-10T02:53:00.938Z,0.20
2019-05-10T02:55:30.211Z,0.30
2019-05-10T02:57:58.624Z,0.28
2019-05-10T03:00:27.366Z,0.20
2019-05-10T03:02:55.840Z,0.20
2019-05-10T03:05:27.151Z,0.17
2019-05-10T03:07:58.276Z,0.10
2019-05-10T03:10:29.809Z,0.25
2019-05-10T03:12:59.626Z,0.20
2019-05-10T03:15:31.104Z,0.20
2019-05-10T03:18:02.537Z,0.20
2019-05-10T03:20:33.047Z,0.20
2019-05-10T03:23:02.149Z,0.20
2019-05-10T03:25:30.550Z,0.20
2019-05-10T03:27:58.980Z,0.15
2019-05-10T03:30:27.548Z,0.20
2019-05-10T03:32:55.955Z,0.30
2019-05-10T03:35:24.810Z,0.30
2019-05-10T03:37:53.346Z,0.20
2019-05-10T03:40:21.428Z,0.10
2019-05-10T03:42:50.405Z,0.20
2019-05-10T03:45:19.650Z,0.20
2019-05-10T03:47:48.072Z,0.20
2019-05-10T03:50:16.537Z,0.20
2019-05-10T03:52:44.958Z,0.15
2019-05-10T03:55:13.347Z,0.17
2019-05-10T03:57:41.810Z,0.20
2019-05-10T04:00:12.346Z,0.15
2019-05-10T04:02:40.758Z,0.30
2019-05-10T04:05:09.750Z,0.20
2019-05-10T04:07:38.231Z,0.35
2019-05-10T04:10:06.870Z,0.10
2019-05-10T04:12:35.283Z,0.10
2019-05-10T04:15:05.825Z,0.20
2019-05-10T04:17:34.243Z,0.20
2019-05-10T04:20:03.003Z,0.33
2019-05-10T04:22:31.417Z,0.40
2019-05-10T04:24:59.485Z,0.30
2019-05-10T04:27:32.559Z,0.40
2019-05-10T04:29:57.374Z,0.20
2019-05-10T04:32:25.787Z,0.30
2019-05-10T04:34:54.184Z,0.25
2019-05-10T04:37:22.600Z,0.30
2019-05-10T04:39:50.669Z,0.30
2019-05-10T04:42:19.077Z,0.30
2019-05-10T04:44:47.502Z,0.20
2019-05-10T04:47:15.973Z,0.10
2019-05-10T04:49:44.393Z,0.30
2019-05-10T04:52:12.792Z,0.40
2019-05-10T04:54:41.198Z,0.20
2019-05-10T04:57:09.601Z,0.37
2019-05-10T04:59:38.016Z,0.23
2019-05-10T05:02:06.114Z,0.20
2019-05-10T05:04:34.509Z,0.30
2019-05-10T05:07:02.938Z,0.35
2019-05-10T05:09:31.397Z,0.10
2019-05-10T05:11:59.808Z,0.20
2019-05-10T05:14:27.895Z,0.25
2019-05-10T05:16:56.315Z,0.30
2019-05-10T05:19:24.396Z,0.20
2019-05-10T05:21:52.469Z,0.10
2019-05-10T05:24:22.926Z,0.20
2019-05-10T05:26:50.388Z,0.20
2019-05-10T05:29:18.804Z,0.55
2019-05-10T05:31:47.209Z,0.20
2019-05-10T05:34:15.625Z,0.28
2019-05-10T05:37:03.409Z,0.10
2019-05-10T05:39:31.911Z,0.30
2019-05-10T05:42:00.312Z,0.10
2019-05-10T05:44:28.720Z,0.30
2019-05-10T05:46:57.142Z,0.30
2019-05-10T05:49:25.567Z,0.68
2019-05-10T05:51:54.014Z,0.10
2019-05-10T05:54:22.661Z,0.20
2019-05-10T05:56:53.101Z,0.20
2019-05-10T05:59:23.933Z,0.20
2019-05-10T06:01:52.159Z,0.20
2019-05-10T06:04:20.560Z,0.28
2019-05-10T06:06:53.692Z,0.40
2019-05-10T06:09:18.822Z,0.28
2019-05-10T06:11:47.221Z,0.28
2019-05-10T06:14:15.306Z,0.23
2019-05-10T06:16:45.133Z,0.20
2019-05-10T06:19:13.853Z,0.20
2019-05-10T06:21:42.262Z,0.30
2019-05-10T06:24:13.518Z,0.17
2019-05-10T06:26:40.801Z,0.23
2019-05-10T06:29:16.347Z,0.20
2019-05-10T06:31:39.480Z,0.20
2019-05-10T06:34:07.884Z,0.13
2019-05-10T06:36:36.287Z,0.20
2019-05-10T06:39:06.123Z,0.20
2019-05-10T06:41:34.521Z,0.20
2019-05-10T06:44:02.938Z,0.17
2019-05-10T06:46:31.342Z,0.20
2019-05-10T06:49:07.318Z,0.30
2019-05-10T06:51:30.064Z,0.10
2019-05-10T06:53:58.481Z,0.13
2019-05-10T06:56:26.885Z,0.15
2019-05-10T06:58:55.309Z,0.20
2019-05-10T07:01:23.388Z,0.03
2019-05-10T07:03:51.784Z,0.20
2019-05-10T07:06:20.218Z,0.20
2019-05-10T07:08:51.768Z,0.20
2019-05-10T07:11:18.853Z,0.10
2019-05-10T07:13:52.155Z,0.23
2019-05-10T07:16:23.965Z,0.20
2019-05-10T07:18:47.560Z,0.10
2019-05-10T07:21:15.968Z,0.17
2019-05-10T07:23:46.580Z,0.10
2019-05-10T07:26:17.533Z,0.17
2019-05-10T07:28:44.636Z,0.25
2019-05-10T07:31:13.048Z,0.15
2019-05-10T07:33:41.448Z,0.10
2019-05-10T07:36:14.728Z,0.20
2019-05-10T07:38:40.012Z,0.10
2019-05-10T07:41:08.425Z,0.10
2019-05-10T07:43:36.825Z,0.20
2019-05-10T07:46:06.975Z,0.20
2019-05-10T07:48:35.391Z,0.20
2019-05-10T07:51:03.868Z,0.25
2019-05-10T07:53:32.268Z,0.37
2019-05-10T07:56:05.970Z,0.20
2019-05-10T07:58:30.845Z,0.20
2019-05-10T08:00:59.248Z,0.10
2019-05-10T08:03:29.851Z,0.10
2019-05-10T08:06:01.770Z,0.10
2019-05-10T08:08:46.605Z,0.10
2019-05-10T08:11:15.022Z,0.15
2019-05-10T08:13:43.428Z,0.10
2019-05-10T08:16:18.901Z,0.00
2019-05-10T08:19:02.343Z,0.10
2019-05-10T08:21:32.249Z,0.10
2019-05-10T08:24:07.181Z,0.10
2019-05-10T08:26:32.766Z,0.08
2019-05-10T08:29:02.139Z,0.13
2019-05-10T08:31:33.940Z,0.00
2019-05-10T08:34:02.202Z,0.10
2019-05-10T08:36:32.152Z,0.00
2019-05-10T08:39:10.060Z,0.10
2019-05-10T08:41:32.565Z,0.10
2019-05-10T08:44:04.642Z,0.20
2019-05-10T08:46:40.064Z,0.10
2019-05-10T08:49:02.073Z,0.10
2019-05-10T08:51:32.313Z,0.08
2019-05-10T08:54:01.762Z,0.05
2019-05-10T08:56:33.078Z,0.10
2019-05-10T08:59:03.667Z,0.20
2019-05-10T09:01:38.446Z,0.10
2019-05-10T09:04:06.448Z,0.10
2019-05-10T09:06:32.769Z,0.13
2019-05-10T09:09:03.585Z,0.10
2019-05-10T09:11:32.830Z,0.20
2019-05-10T09:14:03.033Z,0.13
2019-05-10T09:16:39.189Z,0.15
2019-05-10T09:19:02.542Z,0.10
2019-05-10T09:21:32.167Z,0.00
2019-05-10T09:24:03.407Z,0.15
2019-05-10T09:26:32.237Z,0.10
2019-05-10T09:29:01.687Z,0.20
2019-05-10T09:31:32.516Z,0.10
2019-05-10T09:34:23.878Z,0.10
2019-05-10T09:36:49.523Z,0.10
2019-05-10T09:39:21.642Z,0.20
2019-05-10T09:41:48.055Z,0.10
2019-05-10T09:44:16.127Z,0.20
2019-05-10T09:46:44.548Z,0.10
2019-05-10T09:49:18.131Z,0.00
2019-05-10T09:51:42.769Z,0.30
2019-05-10T09:54:11.174Z,0.50
2019-05-10T09:56:44.443Z,0.20
2019-05-10T09:59:09.745Z,0.20
2019-05-10T10:01:38.264Z,0.17
2019-05-10T10:04:06.729Z,0.10
2019-05-10T10:06:36.910Z,0.10
2019-05-10T10:09:07.410Z,0.10
2019-05-10T10:11:36.161Z,0.20
2019-05-10T10:14:04.309Z,0.10
2019-05-10T10:16:32.713Z,0.00
2019-05-10T10:19:01.129Z,0.20
2019-05-10T10:21:34.834Z,0.10
2019-05-10T10:24:00.451Z,0.10
2019-05-10T10:26:29.134Z,0.10
2019-05-10T10:29:00.150Z,0.10
2019-05-10T10:31:33.096Z,0.10
2019-05-10T10:34:00.388Z,0.10
2019-05-10T10:36:27.624Z,0.17
2019-05-10T10:38:56.052Z,0.10
2019-05-10T10:41:27.377Z,0.10
2019-05-10T10:43:54.608Z,0.00
2019-05-10T10:46:22.693Z,0.10
2019-05-10T10:48:51.541Z,0.20
2019-05-10T10:51:20.197Z,0.20
2019-05-10T10:53:48.617Z,0.30
2019-05-10T10:56:17.649Z,0.20
2019-05-10T10:58:49.615Z,0.10
2019-05-10T11:01:23.569Z,0.17
2019-05-10T11:03:48.815Z,0.10
2019-05-10T11:06:16.701Z,0.20
2019-05-10T11:08:45.143Z,0.30
2019-05-10T11:11:13.545Z,0.30
2019-05-10T11:13:45.939Z,0.47
2019-05-10T11:16:15.751Z,0.50
2019-05-10T11:18:42.268Z,0.50
2019-05-10T11:21:11.276Z,0.42
2019-05-10T11:23:42.022Z,0.50
2019-05-10T11:26:10.878Z,0.70
2019-05-10T11:28:43.871Z,0.57
2019-05-10T11:31:11.302Z,0.70
2019-05-10T11:33:41.496Z,0.62
2019-05-10T11:36:11.484Z,0.80
2019-05-10T11:38:41.760Z,0.82
2019-05-10T11:41:13.617Z,1.05
2019-05-10T11:43:41.753Z,0.75
2019-05-10T11:46:11.574Z,0.70
2019-05-10T11:48:52.712Z,0.72
2019-05-10T11:51:21.222Z,0.78
2019-05-10T11:53:55.534Z,0.70
2019-05-10T11:56:27.232Z,1.12
2019-05-10T11:58:54.957Z,0.72
2019-05-10T12:01:22.127Z,0.60
2019-05-10T12:03:49.437Z,0.60
2019-05-10T12:06:17.838Z,0.60
2019-05-10T12:08:46.256Z,0.78
2019-05-10T12:11:27.759Z,0.80
2019-05-10T12:13:44.788Z,0.60
2019-05-10T12:16:16.792Z,0.60
2019-05-10T12:19:05.528Z,0.55
2019-05-10T12:21:13.510Z,0.60
2019-05-10T12:23:50.142Z,0.53
2019-05-10T12:28:41.830Z,0.50
2019-05-10T12:31:13.423Z,0.50
2019-05-10T12:33:42.953Z,1.10
2019-05-10T12:36:21.332Z,0.60
2019-05-10T12:38:40.398Z,0.50
2019-05-10T12:41:08.813Z,0.40
2019-05-10T12:43:37.216Z,0.50
2019-05-10T12:46:05.359Z,0.50
2019-05-10T12:48:35.847Z,0.40
2019-05-10T12:51:08.257Z,0.40
2019-05-10T12:53:36.724Z,0.50
2019-05-10T12:56:04.581Z,0.45
2019-05-10T12:58:32.977Z,0.35
2019-05-10T13:01:01.399Z,0.25
2019-05-10T13:03:31.428Z,0.40
2019-05-10T13:05:59.925Z,0.37
2019-05-10T13:08:28.346Z,0.30
2019-05-10T13:10:56.757Z,0.30
2019-05-10T13:13:29.837Z,0.20
2019-05-10T13:15:55.357Z,0.30
2019-05-10T13:18:48.198Z,0.20
2019-05-10T13:20:53.572Z,0.28
2019-05-10T13:23:21.998Z,0.20
2019-05-10T13:25:50.073Z,0.17
2019-05-10T13:28:18.477Z,0.20
2019-05-10T13:30:46.548Z,0.28
2019-05-10T13:33:27.728Z,0.20
2019-05-10T13:35:44.761Z,0.28
2019-05-10T13:38:13.169Z,0.10
2019-05-10T13:40:45.660Z,0.20
2019-05-10T13:43:11.389Z,0.28
2019-05-10T13:45:39.876Z,0.28
2019-05-10T13:48:08.297Z,0.10
2019-05-10T13:50:36.724Z,0.20
2019-05-10T13:53:05.189Z,0.20
2019-05-10T13:55:33.629Z,0.20
2019-05-10T13:58:01.758Z,0.15
2019-05-10T14:00:34.495Z,0.45
2019-05-10T14:03:04.910Z,0.10
2019-05-10T14:05:30.524Z,0.57
2019-05-10T14:07:58.931Z,0.20
2019-05-10T14:10:27.004Z,0.20
2019-05-10T14:13:01.942Z,0.20
2019-05-10T14:15:25.557Z,0.10
2019-05-10T14:17:53.954Z,0.20
2019-05-10T14:20:27.546Z,0.13
2019-05-10T14:22:55.618Z,0.10
2019-05-10T14:25:22.372Z,0.15
2019-05-10T14:27:50.444Z,0.20
2019-05-10T14:30:19.308Z,0.25
2019-05-10T14:32:47.705Z,0.20
2019-05-10T14:35:16.406Z,0.20
2019-05-10T14:37:48.022Z,0.10
2019-05-10T14:40:16.740Z,0.10
2019-05-10T14:42:46.446Z,0.10
2019-05-10T14:45:15.055Z,0.10
2019-05-10T14:47:47.967Z,0.10
2019-05-10T14:50:19.321Z,0.10
2019-05-10T14:52:44.443Z,0.20
2019-05-10T14:55:13.077Z,0.17
2019-05-10T14:57:41.385Z,0.20
2019-05-10T15:00:09.972Z,0.25
2019-05-10T15:02:40.160Z,0.10
2019-05-10T15:05:15.478Z,0.10
2019-05-10T15:07:38.897Z,0.20
2019-05-10T15:10:08.054Z,0.10
2019-05-10T15:12:36.488Z,0.10
2019-05-10T15:15:06.408Z,0.10
2019-05-10T15:17:34.837Z,0.10
2019-05-10T15:20:05.089Z,0.20
2019-05-10T15:22:33.503Z,0.30
2019-05-10T15:25:01.909Z,0.20
2019-05-10T15:27:30.322Z,0.20
2019-05-10T15:30:04.427Z,0.10
2019-05-10T15:32:28.315Z,0.10
2019-05-10T15:35:06.520Z,0.10
2019-05-10T15:37:26.521Z,0.10
2019-05-10T15:39:54.918Z,0.23
2019-05-10T15:42:23.035Z,0.33
2019-05-10T15:44:51.436Z,0.25
2019-05-10T15:47:20.591Z,0.20
2019-05-10T15:49:49.660Z,0.17
2019-05-10T15:52:18.316Z,0.10
2019-05-10T15:54:47.270Z,0.10
2019-05-10T15:57:20.281Z,0.17
2019-05-10T15:59:50.660Z,0.30
2019-05-10T16:02:15.956Z,0.33
2019-05-10T16:04:44.382Z,0.20
2019-05-10T16:07:14.436Z,0.23
2019-05-10T16:09:42.596Z,0.20
2019-05-10T16:12:11.009Z,0.30
2019-05-10T16:14:41.137Z,0.30
2019-05-10T16:17:10.356Z,0.30
2019-05-10T16:19:39.696Z,0.30
2019-05-10T16:22:08.115Z,0.25
2019-05-10T16:24:36.521Z,0.10
2019-05-10T16:27:04.960Z,0.30
2019-05-10T16:29:39.335Z,0.30
2019-05-10T16:32:03.564Z,0.20
2019-05-10T16:34:32.769Z,0.10
2019-05-10T16:37:02.112Z,0.10
2019-05-10T16:39:30.172Z,0.28
2019-05-10T16:41:58.620Z,0.10
2019-05-10T16:44:26.690Z,0.10
2019-05-10T16:46:55.098Z,0.10
2019-05-10T16:49:23.529Z,0.10
2019-05-10T16:51:51.600Z,0.20
2019-05-10T16:54:25.338Z,0.10
2019-05-10T16:56:51.708Z,0.17
2019-05-10T16:59:24.283Z,0.10
2019-05-10T17:01:50.404Z,0.17
2019-05-10T17:04:18.828Z,0.20
2019-05-10T17:06:47.982Z,0.20
2019-05-10T17:09:18.442Z,0.20
2019-05-10T17:11:46.878Z,0.20
2019-05-10T17:14:17.880Z,0.30
2019-05-10T17:16:49.615Z,0.10
2019-05-10T17:19:17.304Z,0.20
2019-05-10T17:21:45.708Z,0.65
2019-05-10T17:24:18.730Z,0.30
2019-05-10T17:26:44.269Z,0.20
2019-05-10T17:29:14.770Z,0.15
2019-05-10T17:31:45.658Z,0.10
2019-05-10T17:34:22.141Z,0.30
2019-05-10T17:36:43.073Z,0.13
2019-05-10T17:39:11.180Z,0.15
2019-05-10T17:41:39.252Z,0.30
2019-05-10T17:44:07.670Z,0.20
2019-05-10T17:46:36.064Z,0.10
2019-05-10T17:49:04.484Z,0.20
2019-05-10T17:51:32.886Z,0.30
2019-05-10T17:54:03.561Z,0.20
2019-05-10T17:56:32.740Z,0.75
2019-05-10T17:59:05.668Z,1.92
2019-05-10T18:01:31.385Z,0.88
2019-05-10T18:03:59.468Z,0.40
2019-05-10T18:06:27.874Z,0.35
2019-05-10T18:08:56.371Z,0.40
2019-05-10T18:11:24.840Z,0.28
2019-05-10T18:13:53.254Z,0.20
2019-05-10T18:16:21.678Z,0.25
2019-05-10T18:18:49.785Z,0.23
2019-05-10T18:21:22.096Z,0.23
2019-05-10T18:23:52.701Z,0.20
2019-05-10T18:26:18.469Z,0.20
2019-05-10T18:28:47.617Z,0.20
2019-05-10T18:31:15.791Z,0.20
2019-05-10T18:33:51.189Z,0.10
2019-05-10T18:36:13.972Z,0.33
2019-05-10T18:38:42.389Z,0.25
2019-05-10T18:41:11.838Z,0.23
2019-05-10T18:43:40.805Z,0.20
2019-05-10T18:46:09.878Z,0.13
2019-05-10T18:48:38.273Z,0.33
2019-05-10T18:51:06.361Z,0.50
2019-05-10T18:53:34.764Z,0.40
2019-05-10T18:56:03.172Z,0.62
2019-05-10T18:58:31.747Z,0.40
2019-05-10T19:01:02.117Z,0.20
2019-05-10T19:03:33.865Z,0.37
2019-05-10T19:06:04.114Z,0.70
2019-05-10T19:08:30.673Z,1.00
2019-05-10T19:10:59.096Z,0.93
2019-05-10T19:13:27.366Z,0.82
2019-05-10T19:15:58.438Z,0.90
2019-05-10T19:18:25.950Z,0.68
2019-05-10T19:20:55.221Z,0.60
2019-05-10T19:23:23.603Z,0.70
2019-05-10T19:25:53.980Z,0.60
2019-05-10T19:28:26.802Z,0.50
2019-05-10T19:30:52.873Z,0.50
2019-05-10T19:33:22.406Z,0.75
2019-05-10T19:35:50.516Z,0.60
2019-05-10T19:38:18.576Z,0.40
2019-05-10T19:40:46.993Z,0.30
2019-05-10T19:43:21.400Z,0.50
2019-05-10T19:45:45.554Z,0.88
2019-05-10T19:48:13.948Z,0.50
2019-05-10T19:50:42.024Z,0.28
2019-05-10T19:53:10.444Z,0.60
2019-05-10T19:55:38.525Z,0.50
2019-05-10T19:58:06.613Z,0.42
2019-05-10T20:00:34.788Z,0.40
2019-05-10T20:03:02.861Z,0.30
2019-05-10T20:05:31.325Z,0.40
2019-05-10T20:07:59.773Z,0.30
2019-05-10T20:10:28.188Z,0.30
2019-05-10T20:12:56.607Z,0.30
2019-05-10T20:15:24.695Z,0.20
2019-05-10T20:17:53.190Z,0.30
2019-05-10T20:20:21.653Z,0.65
2019-05-10T20:22:50.041Z,0.30
2019-05-10T20:25:18.447Z,0.20
2019-05-10T20:27:46.876Z,0.30
2019-05-10T20:30:15.029Z,0.50
2019-05-10T20:32:43.120Z,0.40
2019-05-10T20:35:11.729Z,0.30
2019-05-10T20:37:40.157Z,0.35
2019-05-10T20:40:09.109Z,0.40
2019-05-10T20:42:37.525Z,0.40
2019-05-10T20:45:07.992Z,0.30
2019-05-10T20:47:35.749Z,0.42
2019-05-10T20:50:05.691Z,0.40
2019-05-10T20:52:33.782Z,0.50
2019-05-10T20:55:02.310Z,0.60
2019-05-10T20:57:30.826Z,0.60
2019-05-10T20:59:58.904Z,0.70
2019-05-10T21:02:27.321Z,0.55
2019-05-10T21:04:55.406Z,0.60
2019-05-10T21:07:23.821Z,0.60
2019-05-10T21:09:52.232Z,0.60
2019-05-10T21:12:20.643Z,0.50
2019-05-10T21:14:48.739Z,0.47
2019-05-10T21:17:17.217Z,0.40
2019-05-10T21:19:45.612Z,0.40
2019-05-10T21:22:14.036Z,0.30
2019-05-10T21:24:42.445Z,0.50
2019-05-10T21:27:10.849Z,0.30
2019-05-10T21:29:39.266Z,0.40
2019-05-10T21:32:07.736Z,0.40
2019-05-10T21:34:35.869Z,0.50
2019-05-10T21:37:03.992Z,0.50
2019-05-10T21:39:32.398Z,0.50
2019-05-10T21:42:20.203Z,0.68
2019-05-10T21:44:48.593Z,0.42
2019-05-10T21:47:17.064Z,0.60
2019-05-10T21:49:45.497Z,0.60
2019-05-10T21:52:13.566Z,0.30
2019-05-10T21:54:42.032Z,0.50
2019-05-10T21:57:10.425Z,0.50
2019-05-10T21:59:38.894Z,0.70
2019-05-10T22:02:07.433Z,0.50
2019-05-10T22:04:35.833Z,0.60
2019-05-10T22:07:04.360Z,0.60
2019-05-10T22:09:32.961Z,0.68
2019-05-10T22:12:01.774Z,0.65
2019-05-10T22:14:30.288Z,0.60
2019-05-10T22:16:58.750Z,0.57
2019-05-10T22:19:27.187Z,0.68
2019-05-10T22:21:55.661Z,0.50
2019-05-10T22:24:24.151Z,0.60
2019-05-10T22:26:52.596Z,0.55
2019-05-10T22:29:20.739Z,0.70
2019-05-10T22:31:48.994Z,0.60
2019-05-10T22:34:17.591Z,0.60
2019-05-10T22:36:46.025Z,0.70
2019-05-10T22:39:14.554Z,0.70
2019-05-10T22:41:42.995Z,0.55
2019-05-10T22:44:11.444Z,0.57
2019-05-10T22:46:39.893Z,0.53
2019-05-10T22:49:08.375Z,0.90
2019-05-10T22:51:36.891Z,0.80
2019-05-10T22:54:05.084Z,0.50
2019-05-10T22:56:33.196Z,0.80
2019-05-10T22:59:01.647Z,0.82
2019-05-10T23:01:29.755Z,0.70
2019-05-10T23:03:58.216Z,0.80
2019-05-10T23:06:26.648Z,0.80
2019-05-10T23:08:55.117Z,0.70
2019-05-10T23:11:23.565Z,0.62
2019-05-10T23:13:52.020Z,0.70
2019-05-10T23:16:20.540Z,0.75
2019-05-10T23:18:48.992Z,0.93
2019-05-10T23:21:17.435Z,0.65
2019-05-10T23:23:45.885Z,0.60
2019-05-10T23:26:14.612Z,0.72
2019-05-10T23:28:43.060Z,0.60
2019-05-10T23:31:11.522Z,0.45
2019-05-10T23:33:40.044Z,0.50
2019-05-10T23:36:08.492Z,0.60
2019-05-10T23:38:37.008Z,0.55
2019-05-10T23:41:05.454Z,0.60
2019-05-10T23:43:33.892Z,0.78
2019-05-10T23:46:02.353Z,0.60
2019-05-10T23:48:30.863Z,0.50
2019-05-10T23:50:59.314Z,0.50
2019-05-10T23:53:27.772Z,0.50
2019-05-10T23:55:56.291Z,0.40
2019-05-10T23:58:24.743Z,0.50
